createdAt,value
2023-04-29T00:03:58.857Z,12.76
2023-04-29T00:12:15.741Z,12.69
2023-04-29T00:16:18.732Z,12.70
2023-04-29T00:20:24.128Z,12.73
2023-04-29T00:24:27.745Z,12.77
2023-04-29T00:28:31.970Z,12.81
2023-04-29T00:32:35.596Z,12.91
2023-04-29T00:36:42.229Z,12.95
2023-04-29T00:40:46.362Z,12.99
2023-04-29T00:44:49.243Z,13.03
2023-04-29T00:48:53.054Z,13.05
2023-04-29T00:52:58.295Z,13.06
2023-04-29T00:57:02.790Z,13.06
2023-04-29T01:01:06.565Z,13.05
2023-04-29T01:05:09.814Z,13.05
2023-04-29T01:09:28.428Z,13.06
2023-04-29T01:13:35.795Z,13.08
2023-04-29T01:17:43.549Z,13.10
2023-04-29T01:21:50.703Z,13.12
2023-04-29T01:25:56.291Z,13.10
2023-04-29T01:30:06.053Z,13.11
2023-04-29T01:34:12.657Z,13.08
2023-04-29T01:38:26.622Z,13.06
2023-04-29T01:42:39.459Z,13.03
2023-04-29T01:46:45.613Z,13.00
2023-04-29T01:50:49.548Z,12.95
2023-04-29T01:54:52.448Z,12.85
2023-04-29T01:58:57.535Z,12.84
2023-04-29T02:03:00.899Z,12.81
2023-04-29T02:07:04.604Z,12.76
2023-04-29T02:11:07.625Z,12.73
2023-04-29T02:15:14.140Z,12.72
2023-04-29T02:19:17.458Z,12.68
2023-04-29T02:23:21.477Z,12.66
2023-04-29T02:27:25.077Z,12.67
2023-04-29T02:31:30.752Z,12.70
2023-04-29T02:35:34.661Z,12.74
2023-04-29T02:39:37.626Z,12.77
2023-04-29T02:43:42.010Z,12.83
2023-04-29T02:47:47.164Z,12.93
2023-04-29T02:51:51.044Z,12.97
2023-04-29T02:55:54.721Z,13.00
2023-04-29T02:59:58.160Z,13.01
2023-04-29T03:04:03.603Z,12.98
2023-04-29T03:08:06.656Z,12.93
2023-04-29T03:12:10.441Z,12.84
2023-04-29T03:16:15.351Z,12.84
2023-04-29T03:20:21.142Z,12.86
2023-04-29T03:24:24.085Z,12.91
2023-04-29T03:28:28.321Z,12.94
2023-04-29T03:32:31.461Z,12.91
2023-04-29T03:36:38.302Z,12.92
2023-04-29T03:40:41.848Z,12.87
2023-04-29T03:44:45.216Z,12.83
2023-04-29T03:48:48.386Z,12.83
2023-04-29T03:52:53.743Z,12.86
2023-04-29T03:56:57.327Z,12.88
2023-04-29T04:01:00.311Z,12.91
2023-04-29T04:05:04.124Z,12.96
2023-04-29T04:09:09.483Z,13.02
2023-04-29T04:13:12.943Z,13.13
2023-04-29T04:17:16.281Z,13.23
2023-04-29T04:21:19.785Z,13.32
2023-04-29T04:25:24.258Z,13.39
2023-04-29T04:29:27.972Z,13.46
2023-04-29T04:33:30.854Z,13.49
2023-04-29T04:37:34.970Z,13.56
2023-04-29T04:41:40.169Z,13.63
2023-04-29T04:45:43.549Z,13.69
2023-04-29T04:49:47.210Z,13.76
2023-04-29T04:53:51.155Z,13.89
2023-04-29T04:57:55.878Z,13.99
2023-04-29T05:02:00.736Z,14.08
2023-04-29T05:06:05.030Z,14.18
2023-04-29T05:10:10.220Z,14.24
2023-04-29T05:14:15.406Z,14.38
2023-04-29T05:18:19.256Z,14.57
2023-04-29T05:22:22.624Z,14.73
2023-04-29T05:26:26.085Z,14.91
2023-04-29T05:30:31.044Z,15.04
2023-04-29T05:34:34.785Z,15.23
2023-04-29T05:38:38.364Z,15.41
2023-04-29T05:42:42.449Z,15.56
2023-04-29T05:46:48.963Z,15.64
2023-04-29T05:50:52.690Z,15.74
2023-04-29T05:54:55.925Z,15.84
2023-04-29T05:58:59.742Z,15.95
2023-04-29T06:03:04.894Z,16.11
2023-04-29T06:07:10.255Z,16.27
2023-04-29T06:11:13.142Z,16.39
2023-04-29T06:15:16.915Z,16.55
2023-04-29T06:19:22.624Z,16.66
2023-04-29T06:23:25.777Z,16.86
2023-04-29T06:27:29.979Z,17.02
2023-04-29T06:31:33.183Z,17.20
2023-04-29T06:35:41.536Z,17.33
2023-04-29T06:39:44.482Z,17.43
2023-04-29T06:43:48.991Z,17.55
2023-04-29T06:47:52.526Z,17.66
2023-04-29T06:51:57.300Z,17.80
2023-04-29T06:56:00.214Z,17.94
2023-04-29T07:00:04.406Z,18.09
2023-04-29T07:04:07.769Z,18.25
2023-04-29T07:08:14.707Z,18.43
2023-04-29T07:12:17.644Z,18.55
2023-04-29T07:16:27.152Z,18.75
2023-04-29T07:20:30.329Z,18.96
2023-04-29T07:24:35.283Z,19.19
2023-04-29T07:28:39.334Z,19.42
2023-04-29T07:32:46.762Z,19.55
2023-04-29T07:36:49.924Z,19.63
2023-04-29T07:40:55.252Z,19.65
2023-04-29T07:44:58.976Z,19.68
2023-04-29T07:49:02.404Z,19.71
2023-04-29T07:53:05.649Z,19.75
2023-04-29T07:57:11.094Z,19.82
2023-04-29T08:01:15.666Z,19.94
2023-04-29T08:05:20.335Z,20.13
2023-04-29T08:09:23.686Z,20.35
2023-04-29T08:13:28.887Z,20.59
2023-04-29T08:17:32.010Z,20.82
2023-04-29T08:21:35.625Z,21.04
2023-04-29T08:25:46.578Z,21.16
2023-04-29T08:29:52.231Z,21.21
2023-04-29T08:33:55.230Z,21.25
2023-04-29T08:37:58.617Z,21.29
2023-04-29T08:42:02.050Z,21.31
2023-04-29T08:46:08.430Z,21.29
2023-04-29T08:50:15.308Z,21.18
2023-04-29T08:54:19.912Z,21.05
2023-04-29T08:58:26.758Z,20.91
2023-04-29T09:02:32.030Z,20.84
2023-04-29T09:06:36.104Z,20.82
2023-04-29T09:10:41.503Z,20.92
2023-04-29T09:14:44.903Z,21.11
2023-04-29T09:18:52.296Z,21.37
2023-04-29T09:22:57.010Z,21.56
2023-04-29T09:27:00.921Z,21.79
2023-04-29T09:31:06.848Z,22.04
2023-04-29T09:35:28.913Z,22.45
2023-04-29T09:39:42.689Z,22.89
2023-04-29T09:43:48.643Z,23.21
2023-04-29T09:48:03.864Z,23.45
2023-04-29T09:52:10.140Z,23.55
2023-04-29T09:56:13.723Z,23.55
2023-04-29T10:00:19.020Z,23.50
2023-04-29T10:04:24.585Z,23.54
2023-04-29T10:08:31.566Z,23.62
2023-04-29T10:12:36.550Z,23.69
2023-04-29T10:16:47.102Z,23.88
2023-04-29T10:20:50.807Z,24.11
2023-04-29T10:24:59.696Z,24.46
2023-04-29T10:29:04.216Z,24.73
2023-04-29T10:33:10.120Z,24.95
2023-04-29T10:37:14.229Z,25.08
2023-04-29T10:41:25.223Z,25.04
2023-04-29T10:45:32.242Z,24.92
2023-04-29T10:49:36.838Z,24.80
2023-04-29T10:54:02.035Z,24.80
2023-04-29T10:58:08.730Z,24.83
2023-04-29T11:02:16.088Z,24.93
2023-04-29T11:06:20.671Z,25.02
2023-04-29T11:10:39.382Z,25.23
2023-04-29T11:14:51.675Z,25.46
2023-04-29T11:19:09.025Z,25.68
2023-04-29T11:23:12.842Z,25.63
2023-04-29T11:27:17.082Z,25.45
2023-04-29T11:31:25.818Z,25.32
2023-04-29T11:35:29.995Z,25.34
2023-04-29T11:39:37.002Z,25.48
2023-04-29T11:43:40.720Z,25.63
2023-04-29T11:47:47.299Z,25.75
2023-04-29T11:51:50.358Z,25.80
2023-04-29T11:55:54.974Z,25.84
2023-04-29T11:59:58.988Z,25.79
2023-04-29T12:04:05.604Z,25.69
2023-04-29T12:08:09.098Z,25.56
2023-04-29T12:12:24.413Z,25.42
2023-04-29T12:16:38.996Z,25.26
2023-04-29T12:20:56.392Z,25.34
2023-04-29T12:25:21.190Z,25.91
2023-04-29T12:29:42.284Z,26.24
2023-04-29T12:34:17.091Z,26.25
2023-04-29T12:38:27.334Z,26.81
2023-04-29T12:42:33.791Z,27.12
2023-04-29T12:46:38.094Z,26.96
2023-04-29T12:50:41.192Z,26.96
2023-04-29T12:54:49.903Z,26.89
2023-04-29T12:58:53.529Z,27.14
2023-04-29T13:02:57.081Z,27.28
2023-04-29T13:07:01.193Z,27.06
2023-04-29T13:11:06.285Z,26.85
2023-04-29T13:15:11.690Z,26.56
2023-04-29T13:19:28.282Z,26.00
2023-04-29T13:23:37.585Z,26.12
2023-04-29T13:27:44.153Z,26.25
2023-04-29T13:32:03.806Z,26.08
2023-04-29T13:36:13.891Z,25.98
2023-04-29T13:40:20.430Z,25.85
2023-04-29T13:44:34.348Z,25.69
2023-04-29T13:53:30.378Z,25.39
2023-04-29T14:02:23.486Z,26.41
2023-04-29T14:06:19.188Z,26.73
2023-04-29T14:10:22.787Z,27.13
2023-04-29T14:14:37.851Z,27.24
2023-04-29T14:18:42.875Z,27.38
2023-04-29T14:23:00.035Z,27.22
2023-04-29T14:27:04.232Z,27.48
2023-04-29T14:31:07.751Z,27.51
2023-04-29T14:35:13.032Z,27.24
2023-04-29T14:39:17.098Z,27.31
2023-04-29T14:43:23.690Z,27.08
2023-04-29T14:47:27.040Z,27.20
2023-04-29T14:51:31.860Z,27.46
2023-04-29T14:55:34.708Z,27.59
2023-04-29T14:59:37.882Z,27.60
2023-04-29T15:03:44.169Z,27.13
2023-04-29T15:07:49.538Z,26.95
2023-04-29T15:11:52.444Z,26.91
2023-04-29T15:15:56.011Z,26.75
2023-04-29T15:19:58.905Z,26.29
2023-04-29T15:24:04.895Z,26.18
2023-04-29T15:28:08.008Z,25.97
2023-04-29T15:32:12.802Z,25.90
2023-04-29T15:36:16.505Z,25.80
2023-04-29T15:40:21.187Z,25.93
2023-04-29T15:44:24.107Z,26.07
2023-04-29T15:48:27.631Z,26.03
2023-04-29T15:52:30.569Z,25.74
2023-04-29T15:56:35.514Z,25.41
2023-04-29T16:00:39.027Z,25.41
2023-04-29T16:04:42.564Z,25.33
2023-04-29T16:08:45.881Z,25.47
2023-04-29T16:12:51.241Z,25.34
2023-04-29T16:16:54.311Z,25.34
2023-04-29T16:20:58.179Z,25.18
2023-04-29T16:25:01.900Z,25.03
2023-04-29T16:29:07.521Z,24.94
2023-04-29T16:33:14.149Z,25.04
2023-04-29T16:37:18.471Z,24.77
2023-04-29T16:41:22.862Z,24.39
2023-04-29T16:45:29.349Z,24.07
2023-04-29T16:49:35.376Z,23.76
2023-04-29T16:53:39.106Z,23.37
2023-04-29T16:57:42.203Z,23.26
2023-04-29T17:01:59.893Z,23.03
2023-04-29T17:06:03.291Z,22.82
2023-04-29T17:10:08.215Z,22.90
2023-04-29T17:14:11.271Z,22.45
2023-04-29T17:18:16.565Z,22.19
2023-04-29T17:22:19.918Z,22.23
2023-04-29T17:26:23.570Z,21.88
2023-04-29T17:30:43.464Z,21.45
2023-04-29T17:39:10.058Z,21.03
2023-04-29T17:43:13.510Z,20.75
2023-04-29T17:47:17.437Z,20.45
2023-04-29T17:51:22.924Z,20.15
2023-04-29T17:55:26.253Z,19.83
2023-04-29T17:59:31.189Z,19.54
2023-04-29T18:03:34.266Z,19.25
2023-04-29T18:07:39.103Z,18.99
2023-04-29T18:11:42.538Z,18.74
2023-04-29T18:15:46.046Z,18.51
2023-04-29T18:19:50.615Z,18.32
2023-04-29T18:23:55.074Z,18.15
2023-04-29T18:28:13.130Z,18.02
2023-04-29T18:32:22.086Z,17.92
2023-04-29T18:36:25.185Z,17.83
2023-04-29T18:40:30.154Z,17.78
2023-04-29T18:44:34.266Z,17.73
2023-04-29T18:48:38.981Z,17.66
2023-04-29T18:52:42.684Z,17.60
2023-04-29T18:56:49.826Z,17.57
2023-04-29T19:00:53.172Z,17.50
2023-04-29T19:04:56.870Z,17.43
2023-04-29T19:09:00.272Z,17.32
2023-04-29T19:13:05.354Z,17.24
2023-04-29T19:17:08.452Z,17.17
2023-04-29T19:21:12.444Z,17.12
2023-04-29T19:25:16.235Z,17.13
2023-04-29T19:29:21.630Z,17.17
2023-04-29T19:33:24.629Z,17.21
2023-04-29T19:37:27.940Z,17.31
2023-04-29T19:41:34.792Z,17.44
2023-04-29T19:45:40.109Z,17.55
2023-04-29T19:49:43.557Z,17.62
2023-04-29T19:53:47.963Z,17.72
2023-04-29T19:57:52.173Z,17.78
2023-04-29T20:01:57.564Z,17.82
2023-04-29T20:06:01.573Z,17.84
2023-04-29T20:10:05.677Z,17.85
2023-04-29T20:14:09.419Z,17.84
2023-04-29T20:18:14.843Z,17.80
2023-04-29T20:22:17.977Z,17.75
2023-04-29T20:26:23.341Z,17.70
2023-04-29T20:30:27.174Z,17.65
2023-04-29T20:34:32.726Z,17.60
2023-04-29T20:38:36.322Z,17.52
2023-04-29T20:42:39.980Z,17.43
2023-04-29T20:46:44.192Z,17.34
2023-04-29T20:50:49.522Z,17.26
2023-04-29T20:54:53.963Z,17.14
2023-04-29T20:58:58.995Z,16.99
2023-04-29T21:03:02.454Z,16.86
2023-04-29T21:07:07.051Z,16.70
2023-04-29T21:11:10.737Z,16.53
2023-04-29T21:15:13.987Z,16.39
2023-04-29T21:19:17.541Z,16.30
2023-04-29T21:23:24.399Z,16.22
2023-04-29T21:27:27.463Z,16.14
2023-04-29T21:31:32.048Z,16.07
2023-04-29T21:35:35.796Z,16.07
2023-04-29T21:39:41.473Z,16.10
2023-04-29T21:43:45.451Z,16.14
2023-04-29T21:47:49.894Z,16.20
2023-04-29T21:51:53.068Z,16.28
2023-04-29T21:55:58.119Z,16.36
2023-04-29T22:00:01.807Z,16.40
2023-04-29T22:04:04.689Z,16.46
2023-04-29T22:08:08.768Z,16.50
2023-04-29T22:12:13.164Z,16.55
2023-04-29T22:16:16.540Z,16.60
2023-04-29T22:20:19.690Z,16.68
2023-04-29T22:24:23.323Z,16.72
2023-04-29T22:28:27.860Z,16.77
2023-04-29T22:32:31.439Z,16.78
2023-04-29T22:36:36.976Z,16.83
2023-04-29T22:40:40.485Z,16.85
2023-04-29T22:44:46.295Z,16.87
2023-04-29T22:48:49.737Z,16.86
2023-04-29T22:52:52.936Z,16.86
2023-04-29T22:56:57.255Z,16.84
2023-04-29T23:01:02.564Z,16.83
2023-04-29T23:05:08.169Z,16.80
2023-04-29T23:09:11.705Z,16.78
2023-04-29T23:13:15.396Z,16.77
2023-04-29T23:17:21.472Z,16.75
2023-04-29T23:21:29.185Z,16.70
2023-04-29T23:25:32.421Z,16.65
2023-04-29T23:29:35.939Z,16.60
2023-04-29T23:33:40.248Z,16.56
2023-04-29T23:37:43.970Z,16.49
2023-04-29T23:41:47.284Z,16.43
2023-04-29T23:45:51.207Z,16.36
2023-04-29T23:49:55.897Z,16.29
2023-04-29T23:54:01.435Z,16.27
2023-04-29T23:58:04.360Z,16.22
